sensor_id;sensor_type;location;lat;lon;timestamp;pressure;altitude;pressure_sealevel;temperature;humidity
67517;BME280;54359;59.124;37.910;2023-02-13T00:01:42;99348.34;;;-6.80;78.62
67517;BME280;54359;59.124;37.910;2023-02-13T00:04:08;99351.03;;;-6.77;79.58
67517;BME280;54359;59.124;37.910;2023-02-13T00:06:34;99341.03;;;-6.77;79.89
67517;BME280;54359;59.124;37.910;2023-02-13T00:09:00;99325.44;;;-6.86;78.83
67517;BME280;54359;59.124;37.910;2023-02-13T00:11:27;99309.25;;;-6.92;79.59
67517;BME280;54359;59.124;37.910;2023-02-13T00:13:52;99315.66;;;-6.83;78.93
67517;BME280;54359;59.124;37.910;2023-02-13T00:16:18;99309.78;;;-6.84;79.07
67517;BME280;54359;59.124;37.910;2023-02-13T00:18:44;99299.38;;;-6.90;79.26
67517;BME280;54359;59.124;37.910;2023-02-13T00:21:11;99297.41;;;-6.82;80.05
67517;BME280;54359;59.124;37.910;2023-02-13T00:23:38;99295.88;;;-6.80;80.04
67517;BME280;54359;59.124;37.910;2023-02-13T00:26:09;99291.97;;;-6.77;79.79
67517;BME280;54359;59.124;37.910;2023-02-13T00:28:37;99282.16;;;-6.74;79.50
67517;BME280;54359;59.124;37.910;2023-02-13T00:31:15;99267.38;;;-6.71;80.06
67517;BME280;54359;59.124;37.910;2023-02-13T00:33:41;99261.81;;;-6.66;78.64
67517;BME280;54359;59.124;37.910;2023-02-13T00:36:09;99256.28;;;-6.62;79.18
67517;BME280;54359;59.124;37.910;2023-02-13T00:38:36;99240.19;;;-6.66;79.71
67517;BME280;54359;59.124;37.910;2023-02-13T00:41:03;99228.50;;;-6.54;79.14
67517;BME280;54359;59.124;37.910;2023-02-13T00:43:29;99240.06;;;-6.42;78.62
67517;BME280;54359;59.124;37.910;2023-02-13T00:45:56;99229.31;;;-6.41;78.98
67517;BME280;54359;59.124;37.910;2023-02-13T00:48:27;99237.88;;;-6.24;79.10
67517;BME280;54359;59.124;37.910;2023-02-13T00:50:54;99237.72;;;-6.14;79.44
67517;BME280;54359;59.124;37.910;2023-02-13T00:53:22;99217.91;;;-6.11;79.01
67517;BME280;54359;59.124;37.910;2023-02-13T00:55:48;99227.16;;;-5.97;79.92
67517;BME280;54359;59.124;37.910;2023-02-13T00:58:15;99220.19;;;-5.88;79.46
67517;BME280;54359;59.124;37.910;2023-02-13T01:00:41;99217.50;;;-5.77;78.83
67517;BME280;54359;59.124;37.910;2023-02-13T01:03:07;99198.63;;;-5.72;79.24
67517;BME280;54359;59.124;37.910;2023-02-13T01:05:33;99202.84;;;-5.58;79.32
67517;BME280;54359;59.124;37.910;2023-02-13T01:07:58;99184.16;;;-5.50;79.59
67517;BME280;54359;59.124;37.910;2023-02-13T01:10:25;99193.59;;;-5.46;78.71
67517;BME280;54359;59.124;37.910;2023-02-13T01:12:50;99177.78;;;-5.44;79.83
67517;BME280;54359;59.124;37.910;2023-02-13T01:15:16;99179.38;;;-5.32;78.91
67517;BME280;54359;59.124;37.910;2023-02-13T01:17:42;99179.72;;;-5.26;79.54
67517;BME280;54359;59.124;37.910;2023-02-13T01:20:10;99177.44;;;-5.22;79.41
67517;BME280;54359;59.124;37.910;2023-02-13T01:22:36;99180.03;;;-5.21;78.69
67517;BME280;54359;59.124;37.910;2023-02-13T01:25:02;99177.69;;;-5.18;78.88
67517;BME280;54359;59.124;37.910;2023-02-13T01:27:29;99167.88;;;-5.15;78.80
67517;BME280;54359;59.124;37.910;2023-02-13T01:29:55;99149.63;;;-5.12;79.54
67517;BME280;54359;59.124;37.910;2023-02-13T01:32:22;99156.56;;;-5.08;78.92
67517;BME280;54359;59.124;37.910;2023-02-13T01:34:48;99147.50;;;-5.06;78.86
67517;BME280;54359;59.124;37.910;2023-02-13T01:37:14;99134.88;;;-5.08;79.09
67517;BME280;54359;59.124;37.910;2023-02-13T01:39:40;99118.03;;;-5.10;79.77
67517;BME280;54359;59.124;37.910;2023-02-13T01:42:21;99118.63;;;-4.99;78.72
67517;BME280;54359;59.124;37.910;2023-02-13T01:47:41;99109.47;;;-4.99;79.31
67517;BME280;54359;59.124;37.910;2023-02-13T01:52:35;99112.16;;;-4.96;79.90
67517;BME280;54359;59.124;37.910;2023-02-13T01:55:04;99089.72;;;-4.94;79.57
67517;BME280;54359;59.124;37.910;2023-02-13T01:57:31;99104.06;;;-4.92;79.08
67517;BME280;54359;59.124;37.910;2023-02-13T02:00:11;99092.56;;;-4.88;79.64
67517;BME280;54359;59.124;37.910;2023-02-13T02:02:51;99101.09;;;-4.85;79.35
67517;BME280;54359;59.124;37.910;2023-02-13T02:05:25;99086.75;;;-4.87;79.63
67517;BME280;54359;59.124;37.910;2023-02-13T02:07:52;99094.72;;;-4.79;79.62
67517;BME280;54359;59.124;37.910;2023-02-13T02:10:21;99084.78;;;-4.78;79.15
67517;BME280;54359;59.124;37.910;2023-02-13T02:15:28;99085.56;;;-4.79;79.21
67517;BME280;54359;59.124;37.910;2023-02-13T02:17:54;99073.81;;;-4.80;79.38
67517;BME280;54359;59.124;37.910;2023-02-13T02:32:00;99071.91;;;-4.69;79.85
67517;BME280;54359;59.124;37.910;2023-02-13T02:37:43;99075.59;;;-4.62;79.57
67517;BME280;54359;59.124;37.910;2023-02-13T02:40:48;99059.47;;;-4.68;79.46
67517;BME280;54359;59.124;37.910;2023-02-13T02:46:21;99048.47;;;-4.55;79.56
67517;BME280;54359;59.124;37.910;2023-02-13T02:49:15;99056.22;;;-4.50;79.62
67517;BME280;54359;59.124;37.910;2023-02-13T02:52:39;99036.34;;;-4.47;79.67
67517;BME280;54359;59.124;37.910;2023-02-13T02:58:15;99021.28;;;-4.47;79.15
67517;BME280;54359;59.124;37.910;2023-02-13T03:01:05;99021.53;;;-4.42;79.21
67517;BME280;54359;59.124;37.910;2023-02-13T03:03:51;99024.81;;;-4.43;79.29
67517;BME280;54359;59.124;37.910;2023-02-13T03:06:45;99006.25;;;-4.47;79.44
67517;BME280;54359;59.124;37.910;2023-02-13T03:09:23;99015.66;;;-4.43;79.56
67517;BME280;54359;59.124;37.910;2023-02-13T03:12:10;99013.16;;;-4.43;79.58
67517;BME280;54359;59.124;37.910;2023-02-13T03:14:56;99014.97;;;-4.40;79.58
67517;BME280;54359;59.124;37.910;2023-02-13T03:17:22;99020.91;;;-4.38;79.47
67517;BME280;54359;59.124;37.910;2023-02-13T03:20:21;99016.00;;;-4.37;79.68
67517;BME280;54359;59.124;37.910;2023-02-13T03:23:48;99016.75;;;-4.38;79.66
67517;BME280;54359;59.124;37.910;2023-02-13T03:29:11;99005.34;;;-4.33;80.09
67517;BME280;54359;59.124;37.910;2023-02-13T03:32:22;99013.34;;;-4.23;79.59
67517;BME280;54359;59.124;37.910;2023-02-13T03:34:57;99015.22;;;-4.19;80.20
67517;BME280;54359;59.124;37.910;2023-02-13T03:37:49;99013.84;;;-4.14;80.18
67517;BME280;54359;59.124;37.910;2023-02-13T03:40:27;99018.25;;;-4.10;79.99
67517;BME280;54359;59.124;37.910;2023-02-13T03:43:10;99026.94;;;-4.03;79.73
67517;BME280;54359;59.124;37.910;2023-02-13T03:45:42;99006.78;;;-4.05;79.64
67517;BME280;54359;59.124;37.910;2023-02-13T03:48:35;99022.66;;;-3.90;80.31
67517;BME280;54359;59.124;37.910;2023-02-13T03:51:28;99013.94;;;-3.80;79.80
67517;BME280;54359;59.124;37.910;2023-02-13T03:54:04;99012.13;;;-3.82;79.98
67517;BME280;54359;59.124;37.910;2023-02-13T03:56:32;99010.88;;;-3.74;80.02
67517;BME280;54359;59.124;37.910;2023-02-13T03:59:39;99013.06;;;-3.64;79.86
67517;BME280;54359;59.124;37.910;2023-02-13T04:02:14;99014.19;;;-3.59;80.37
67517;BME280;54359;59.124;37.910;2023-02-13T04:04:52;99013.47;;;-3.56;79.66
67517;BME280;54359;59.124;37.910;2023-02-13T04:07:20;99004.06;;;-3.60;79.95
67517;BME280;54359;59.124;37.910;2023-02-13T04:10:06;99010.31;;;-3.52;80.00
67517;BME280;54359;59.124;37.910;2023-02-13T04:15:10;99017.38;;;-3.45;80.06
67517;BME280;54359;59.124;37.910;2023-02-13T04:17:42;99012.44;;;-3.44;79.70
67517;BME280;54359;59.124;37.910;2023-02-13T04:20:11;99011.72;;;-3.41;79.93
67517;BME280;54359;59.124;37.910;2023-02-13T04:22:55;99008.44;;;-3.40;80.07
67517;BME280;54359;59.124;37.910;2023-02-13T04:25:20;99012.75;;;-3.37;80.16
67517;BME280;54359;59.124;37.910;2023-02-13T04:27:46;98999.88;;;-3.44;80.13
67517;BME280;54359;59.124;37.910;2023-02-13T04:30:12;99017.94;;;-3.34;80.26
67517;BME280;54359;59.124;37.910;2023-02-13T04:32:38;99016.41;;;-3.31;79.70
67517;BME280;54359;59.124;37.910;2023-02-13T04:35:04;98998.97;;;-3.28;79.96
67517;BME280;54359;59.124;37.910;2023-02-13T04:37:30;98996.56;;;-3.26;80.33
67517;BME280;54359;59.124;37.910;2023-02-13T04:39:56;99005.38;;;-3.16;80.10
67517;BME280;54359;59.124;37.910;2023-02-13T04:42:22;99014.78;;;-3.12;80.15
67517;BME280;54359;59.124;37.910;2023-02-13T04:44:47;99004.69;;;-3.14;79.95
67517;BME280;54359;59.124;37.910;2023-02-13T04:47:13;99012.75;;;-3.03;80.34
67517;BME280;54359;59.124;37.910;2023-02-13T04:49:39;98998.59;;;-3.01;80.05
67517;BME280;54359;59.124;37.910;2023-02-13T04:52:04;98994.66;;;-2.96;80.59
67517;BME280;54359;59.124;37.910;2023-02-13T04:54:30;98996.50;;;-2.92;80.02
67517;BME280;54359;59.124;37.910;2023-02-13T04:56:56;98992.28;;;-2.93;79.93
67517;BME280;54359;59.124;37.910;2023-02-13T04:59:22;98995.81;;;-2.89;80.10
67517;BME280;54359;59.124;37.910;2023-02-13T05:01:47;98975.25;;;-2.98;80.17
67517;BME280;54359;59.124;37.910;2023-02-13T05:04:13;98990.72;;;-2.91;80.09
67517;BME280;54359;59.124;37.910;2023-02-13T05:06:41;99004.34;;;-2.86;80.11
67517;BME280;54359;59.124;37.910;2023-02-13T05:09:07;98981.28;;;-2.95;80.50
67517;BME280;54359;59.124;37.910;2023-02-13T05:11:32;98990.06;;;-2.87;80.19
67517;BME280;54359;59.124;37.910;2023-02-13T05:13:58;99001.47;;;-2.75;80.46
67517;BME280;54359;59.124;37.910;2023-02-13T05:16:24;98983.09;;;-2.74;80.38
67517;BME280;54359;59.124;37.910;2023-02-13T05:18:49;98986.09;;;-2.64;80.54
67517;BME280;54359;59.124;37.910;2023-02-13T05:21:20;98985.53;;;-2.58;80.15
67517;BME280;54359;59.124;37.910;2023-02-13T05:24:04;98978.19;;;-2.53;79.84
67517;BME280;54359;59.124;37.910;2023-02-13T05:26:30;98967.63;;;-2.46;80.19
67517;BME280;54359;59.124;37.910;2023-02-13T05:28:56;98969.53;;;-2.40;79.74
67517;BME280;54359;59.124;37.910;2023-02-13T05:31:40;98964.50;;;-2.40;80.48
67517;BME280;54359;59.124;37.910;2023-02-13T05:34:06;98965.53;;;-2.37;80.84
67517;BME280;54359;59.124;37.910;2023-02-13T05:36:31;98960.41;;;-2.38;80.37
67517;BME280;54359;59.124;37.910;2023-02-13T05:38:57;98969.41;;;-2.26;80.52
67517;BME280;54359;59.124;37.910;2023-02-13T05:41:23;98964.63;;;-2.19;80.66
67517;BME280;54359;59.124;37.910;2023-02-13T05:43:49;98956.44;;;-2.15;80.28
67517;BME280;54359;59.124;37.910;2023-02-13T05:46:14;98945.44;;;-2.17;80.31
67517;BME280;54359;59.124;37.910;2023-02-13T05:48:40;98950.78;;;-2.10;80.52
67517;BME280;54359;59.124;37.910;2023-02-13T05:51:06;98947.66;;;-2.04;80.57
67517;BME280;54359;59.124;37.910;2023-02-13T05:53:32;98960.72;;;-1.93;80.51
67517;BME280;54359;59.124;37.910;2023-02-13T05:56:01;98959.34;;;-1.87;80.44
67517;BME280;54359;59.124;37.910;2023-02-13T05:58:28;98966.44;;;-1.78;81.13
67517;BME280;54359;59.124;37.910;2023-02-13T06:00:56;98957.28;;;-1.76;79.74
67517;BME280;54359;59.124;37.910;2023-02-13T06:03:25;98952.59;;;-1.68;80.22
67517;BME280;54359;59.124;37.910;2023-02-13T06:05:52;98947.81;;;-1.62;80.59
67517;BME280;54359;59.124;37.910;2023-02-13T06:08:18;98942.75;;;-1.62;80.41
67517;BME280;54359;59.124;37.910;2023-02-13T06:10:49;98944.31;;;-1.45;80.37
67517;BME280;54359;59.124;37.910;2023-02-13T06:13:15;98945.63;;;-1.33;80.73
67517;BME280;54359;59.124;37.910;2023-02-13T06:15:41;98940.81;;;-1.27;80.55
67517;BME280;54359;59.124;37.910;2023-02-13T06:18:08;98931.66;;;-1.25;80.01
67517;BME280;54359;59.124;37.910;2023-02-13T06:20:34;98928.66;;;-1.16;80.71
67517;BME280;54359;59.124;37.910;2023-02-13T06:23:00;98926.38;;;-1.10;80.29
67517;BME280;54359;59.124;37.910;2023-02-13T06:25:26;98920.28;;;-1.15;79.75
67517;BME280;54359;59.124;37.910;2023-02-13T06:27:52;98919.31;;;-1.19;80.01
67517;BME280;54359;59.124;37.910;2023-02-13T06:30:18;98928.03;;;-1.11;80.32
67517;BME280;54359;59.124;37.910;2023-02-13T06:32:47;98931.50;;;-1.07;80.51
67517;BME280;54359;59.124;37.910;2023-02-13T06:35:14;98920.47;;;-1.11;80.38
67517;BME280;54359;59.124;37.910;2023-02-13T06:37:40;98922.50;;;-1.02;80.19
67517;BME280;54359;59.124;37.910;2023-02-13T06:40:09;98913.56;;;-0.94;80.50
67517;BME280;54359;59.124;37.910;2023-02-13T06:42:35;98905.94;;;-0.95;80.46
67517;BME280;54359;59.124;37.910;2023-02-13T06:45:01;98928.19;;;-0.85;80.39
67517;BME280;54359;59.124;37.910;2023-02-13T06:47:27;98909.75;;;-0.84;80.14
67517;BME280;54359;59.124;37.910;2023-02-13T06:49:52;98910.13;;;-0.73;80.37
67517;BME280;54359;59.124;37.910;2023-02-13T06:52:18;98911.34;;;-0.64;80.29
67517;BME280;54359;59.124;37.910;2023-02-13T06:54:44;98906.53;;;-0.57;80.43
67517;BME280;54359;59.124;37.910;2023-02-13T06:57:10;98899.97;;;-0.52;80.02
67517;BME280;54359;59.124;37.910;2023-02-13T06:59:36;98898.75;;;-0.39;80.40
67517;BME280;54359;59.124;37.910;2023-02-13T07:02:01;98896.41;;;-0.35;80.10
67517;BME280;54359;59.124;37.910;2023-02-13T07:04:27;98899.25;;;-0.26;80.27
67517;BME280;54359;59.124;37.910;2023-02-13T07:06:54;98899.53;;;-0.18;80.16
67517;BME280;54359;59.124;37.910;2023-02-13T07:09:24;98881.72;;;-0.23;80.49
67517;BME280;54359;59.124;37.910;2023-02-13T07:11:50;98892.19;;;-0.12;80.42
67517;BME280;54359;59.124;37.910;2023-02-13T07:14:15;98888.25;;;-0.04;80.42
67517;BME280;54359;59.124;37.910;2023-02-13T07:16:41;98887.63;;;0.02;80.17
67517;BME280;54359;59.124;37.910;2023-02-13T07:19:07;98872.41;;;0.01;79.89
67517;BME280;54359;59.124;37.910;2023-02-13T07:21:36;98872.47;;;0.02;79.76
67517;BME280;54359;59.124;37.910;2023-02-13T07:24:03;98879.22;;;0.03;79.95
67517;BME280;54359;59.124;37.910;2023-02-13T07:26:29;98869.16;;;0.05;80.27
67517;BME280;54359;59.124;37.910;2023-02-13T07:28:54;98877.66;;;0.07;80.43
67517;BME280;54359;59.124;37.910;2023-02-13T07:31:20;98870.94;;;0.07;80.22
67517;BME280;54359;59.124;37.910;2023-02-13T07:33:49;98865.03;;;0.07;80.11
67517;BME280;54359;59.124;37.910;2023-02-13T07:36:15;98864.22;;;0.08;80.18
67517;BME280;54359;59.124;37.910;2023-02-13T07:38:42;98863.50;;;0.12;79.76
67517;BME280;54359;59.124;37.910;2023-02-13T07:41:08;98871.25;;;0.16;79.93
67517;BME280;54359;59.124;37.910;2023-02-13T07:43:34;98863.56;;;0.13;80.00
67517;BME280;54359;59.124;37.910;2023-02-13T07:46:01;98863.63;;;0.15;80.27
67517;BME280;54359;59.124;37.910;2023-02-13T07:48:28;98860.59;;;0.25;80.54
67517;BME280;54359;59.124;37.910;2023-02-13T07:50:58;98853.16;;;0.30;80.34
67517;BME280;54359;59.124;37.910;2023-02-13T07:53:24;98859.31;;;0.38;80.53
67517;BME280;54359;59.124;37.910;2023-02-13T07:55:50;98861.19;;;0.44;80.10
67517;BME280;54359;59.124;37.910;2023-02-13T07:58:16;98845.19;;;0.43;80.07
67517;BME280;54359;59.124;37.910;2023-02-13T08:00:41;98857.13;;;0.47;80.53
67517;BME280;54359;59.124;37.910;2023-02-13T08:03:08;98852.97;;;0.49;79.91
67517;BME280;54359;59.124;37.910;2023-02-13T08:05:34;98849.81;;;0.56;80.14
67517;BME280;54359;59.124;37.910;2023-02-13T08:08:00;98844.88;;;0.61;80.03
67517;BME280;54359;59.124;37.910;2023-02-13T08:10:26;98851.72;;;0.64;80.48
67517;BME280;54359;59.124;37.910;2023-02-13T08:13:12;98845.06;;;0.66;80.34
67517;BME280;54359;59.124;37.910;2023-02-13T08:15:39;98849.34;;;0.68;80.14
67517;BME280;54359;59.124;37.910;2023-02-13T08:18:05;98858.94;;;0.78;79.71
67517;BME280;54359;59.124;37.910;2023-02-13T08:20:31;98840.50;;;0.83;80.58
67517;BME280;54359;59.124;37.910;2023-02-13T08:23:02;98832.25;;;0.88;79.80
67517;BME280;54359;59.124;37.910;2023-02-13T08:25:29;98830.66;;;0.92;79.91
67517;BME280;54359;59.124;37.910;2023-02-13T08:27:55;98823.91;;;0.91;79.82
67517;BME280;54359;59.124;37.910;2023-02-13T08:30:21;98823.97;;;0.94;79.78
67517;BME280;54359;59.124;37.910;2023-02-13T08:32:46;98818.19;;;0.98;79.62
67517;BME280;54359;59.124;37.910;2023-02-13T08:35:12;98824.09;;;0.97;79.99
67517;BME280;54359;59.124;37.910;2023-02-13T08:37:38;98816.38;;;0.92;79.80
67517;BME280;54359;59.124;37.910;2023-02-13T08:40:04;98823.31;;;0.99;79.50
67517;BME280;54359;59.124;37.910;2023-02-13T08:42:30;98818.16;;;0.96;79.91
67517;BME280;54359;59.124;37.910;2023-02-13T08:44:56;98828.41;;;1.01;79.89
67517;BME280;54359;59.124;37.910;2023-02-13T08:47:21;98810.75;;;1.03;79.47
67517;BME280;54359;59.124;37.910;2023-02-13T08:49:47;98805.81;;;1.07;79.46
67517;BME280;54359;59.124;37.910;2023-02-13T08:52:13;98812.75;;;1.13;79.55
67517;BME280;54359;59.124;37.910;2023-02-13T08:54:38;98806.13;;;1.18;79.88
67517;BME280;54359;59.124;37.910;2023-02-13T08:57:04;98792.84;;;1.25;79.69
67517;BME280;54359;59.124;37.910;2023-02-13T08:59:30;98790.25;;;1.24;80.19
67517;BME280;54359;59.124;37.910;2023-02-13T09:01:56;98791.47;;;1.36;80.20
67517;BME280;54359;59.124;37.910;2023-02-13T09:04:22;98787.22;;;1.35;79.81
67517;BME280;54359;59.124;37.910;2023-02-13T09:06:48;98784.72;;;1.37;80.10
67517;BME280;54359;59.124;37.910;2023-02-13T09:09:14;98780.56;;;1.39;79.59
67517;BME280;54359;59.124;37.910;2023-02-13T09:11:40;98778.03;;;1.39;79.67
67517;BME280;54359;59.124;37.910;2023-02-13T09:14:06;98774.84;;;1.46;79.35
67517;BME280;54359;59.124;37.910;2023-02-13T09:16:32;98779.03;;;1.44;79.44
67517;BME280;54359;59.124;37.910;2023-02-13T09:18:57;98759.44;;;1.38;79.83
67517;BME280;54359;59.124;37.910;2023-02-13T09:21:23;98755.38;;;1.44;80.25
67517;BME280;54359;59.124;37.910;2023-02-13T09:23:50;98737.50;;;1.39;79.65
67517;BME280;54359;59.124;37.910;2023-02-13T09:26:17;98763.16;;;1.50;79.76
67517;BME280;54359;59.124;37.910;2023-02-13T09:28:43;98767.38;;;1.51;79.43
67517;BME280;54359;59.124;37.910;2023-02-13T09:31:10;98759.03;;;1.55;79.76
67517;BME280;54359;59.124;37.910;2023-02-13T09:33:37;98754.09;;;1.59;79.66
67517;BME280;54359;59.124;37.910;2023-02-13T09:36:07;98756.88;;;1.69;79.45
67517;BME280;54359;59.124;37.910;2023-02-13T09:38:34;98758.72;;;1.74;79.64
67517;BME280;54359;59.124;37.910;2023-02-13T09:41:04;98751.13;;;1.76;79.40
67517;BME280;54359;59.124;37.910;2023-02-13T09:43:53;98742.63;;;1.72;79.17
67517;BME280;54359;59.124;37.910;2023-02-13T09:46:43;98751.19;;;1.77;80.13
67517;BME280;54359;59.124;37.910;2023-02-13T09:49:16;98735.50;;;1.91;80.01
67517;BME280;54359;59.124;37.910;2023-02-13T09:51:47;98723.03;;;2.00;79.62
67517;BME280;54359;59.124;37.910;2023-02-13T09:54:20;98713.69;;;1.97;79.57
67517;BME280;54359;59.124;37.910;2023-02-13T09:56:58;98717.91;;;1.97;79.14
67517;BME280;54359;59.124;37.910;2023-02-13T09:59:42;98716.97;;;1.93;79.24
67517;BME280;54359;59.124;37.910;2023-02-13T10:05:09;98706.13;;;1.99;79.94
67517;BME280;54359;59.124;37.910;2023-02-13T10:10:38;98697.63;;;1.97;79.87
67517;BME280;54359;59.124;37.910;2023-02-13T10:18:37;98684.97;;;1.98;79.84
67517;BME280;54359;59.124;37.910;2023-02-13T10:21:06;98688.44;;;2.02;79.72
67517;BME280;54359;59.124;37.910;2023-02-13T10:26:02;98682.56;;;2.05;80.33
67517;BME280;54359;59.124;37.910;2023-02-13T10:31:07;98661.41;;;2.01;80.04
67517;BME280;54359;59.124;37.910;2023-02-13T10:39:26;98661.81;;;2.19;79.58
67517;BME280;54359;59.124;37.910;2023-02-13T10:41:50;98654.22;;;2.19;79.82
67517;BME280;54359;59.124;37.910;2023-02-13T10:52:47;98641.25;;;2.07;79.32
67517;BME280;54359;59.124;37.910;2023-02-13T10:58:11;98636.97;;;2.05;79.65
67517;BME280;54359;59.124;37.910;2023-02-13T11:01:08;98635.19;;;2.00;79.75
67517;BME280;54359;59.124;37.910;2023-02-13T11:04:09;98628.31;;;1.95;79.95
67517;BME280;54359;59.124;37.910;2023-02-13T11:07:03;98615.41;;;1.86;79.54
67517;BME280;54359;59.124;37.910;2023-02-13T11:09:39;98615.47;;;1.87;79.31
67517;BME280;54359;59.124;37.910;2023-02-13T11:12:35;98611.09;;;1.81;79.57
67517;BME280;54359;59.124;37.910;2023-02-13T11:15:05;98625.50;;;1.84;79.28
67517;BME280;54359;59.124;37.910;2023-02-13T11:17:36;98599.91;;;1.72;80.13
67517;BME280;54359;59.124;37.910;2023-02-13T11:20:39;98570.09;;;1.60;79.82
67517;BME280;54359;59.124;37.910;2023-02-13T11:23:53;98585.72;;;1.78;80.01
67517;BME280;54359;59.124;37.910;2023-02-13T11:26:35;98598.28;;;1.75;79.25
67517;BME280;54359;59.124;37.910;2023-02-13T11:29:24;98569.50;;;1.70;79.84
67517;BME280;54359;59.124;37.910;2023-02-13T11:32:03;98565.03;;;1.61;79.35
67517;BME280;54359;59.124;37.910;2023-02-13T11:34:32;98587.06;;;1.64;79.98
67517;BME280;54359;59.124;37.910;2023-02-13T11:37:14;98592.09;;;1.63;79.69
67517;BME280;54359;59.124;37.910;2023-02-13T11:39:41;98592.88;;;1.60;79.49
67517;BME280;54359;59.124;37.910;2023-02-13T11:44:58;98582.56;;;1.52;79.59
67517;BME280;54359;59.124;37.910;2023-02-13T11:47:38;98595.13;;;1.48;79.80
67517;BME280;54359;59.124;37.910;2023-02-13T11:50:29;98591.56;;;1.39;79.31
67517;BME280;54359;59.124;37.910;2023-02-13T11:53:20;98589.66;;;1.32;79.93
67517;BME280;54359;59.124;37.910;2023-02-13T11:56:14;98581.09;;;1.26;79.23
67517;BME280;54359;59.124;37.910;2023-02-13T11:59:01;98565.81;;;1.23;80.01
67517;BME280;54359;59.124;37.910;2023-02-13T12:01:27;98556.41;;;1.18;80.10
67517;BME280;54359;59.124;37.910;2023-02-13T12:04:15;98566.75;;;1.26;79.98
67517;BME280;54359;59.124;37.910;2023-02-13T12:06:57;98560.94;;;1.30;79.53
67517;BME280;54359;59.124;37.910;2023-02-13T12:09:23;98536.47;;;1.31;80.22
67517;BME280;54359;59.124;37.910;2023-02-13T12:11:59;98537.34;;;1.31;79.69
67517;BME280;54359;59.124;37.910;2023-02-13T12:14:37;98511.84;;;1.24;79.69
67517;BME280;54359;59.124;37.910;2023-02-13T12:17:14;98528.34;;;1.44;79.62
67517;BME280;54359;59.124;37.910;2023-02-13T12:19:46;98532.69;;;1.48;80.00
67517;BME280;54359;59.124;37.910;2023-02-13T12:23:03;98529.06;;;1.38;80.20
67517;BME280;54359;59.124;37.910;2023-02-13T12:31:45;98504.25;;;1.24;79.83
67517;BME280;54359;59.124;37.910;2023-02-13T12:39:56;98523.13;;;1.36;80.37
67517;BME280;54359;59.124;37.910;2023-02-13T12:42:42;98512.94;;;1.33;79.89
67517;BME280;54359;59.124;37.910;2023-02-13T13:04:16;98492.25;;;1.16;80.11
67517;BME280;54359;59.124;37.910;2023-02-13T13:09:38;98488.03;;;1.15;79.80
67517;BME280;54359;59.124;37.910;2023-02-13T13:12:49;98482.94;;;1.14;79.40
67517;BME280;54359;59.124;37.910;2023-02-13T13:19:00;98483.72;;;1.11;79.86
67517;BME280;54359;59.124;37.910;2023-02-13T13:21:47;98472.69;;;1.09;80.25
67517;BME280;54359;59.124;37.910;2023-02-13T13:26:47;98465.16;;;1.11;79.83
67517;BME280;54359;59.124;37.910;2023-02-13T13:29:19;98459.22;;;1.10;79.75
67517;BME280;54359;59.124;37.910;2023-02-13T13:31:53;98455.84;;;1.10;79.92
67517;BME280;54359;59.124;37.910;2023-02-13T13:34:24;98474.38;;;1.09;80.17
67517;BME280;54359;59.124;37.910;2023-02-13T13:43:54;98458.41;;;1.11;80.21
67517;BME280;54359;59.124;37.910;2023-02-13T13:46:01;98451.47;;;1.03;80.34
67517;BME280;54359;59.124;37.910;2023-02-13T13:51:17;98455.03;;;1.11;80.03
67517;BME280;54359;59.124;37.910;2023-02-13T14:05:23;98438.69;;;0.98;80.02
67517;BME280;54359;59.124;37.910;2023-02-13T14:07:54;98449.00;;;1.06;80.37
67517;BME280;54359;59.124;37.910;2023-02-13T14:13:05;98459.88;;;1.02;79.92
67517;BME280;54359;59.124;37.910;2023-02-13T14:29:24;98445.25;;;0.90;80.79
67517;BME280;54359;59.124;37.910;2023-02-13T14:32:17;98432.50;;;0.85;80.54
67517;BME280;54359;59.124;37.910;2023-02-13T14:34:55;98428.06;;;0.76;80.82
67517;BME280;54359;59.124;37.910;2023-02-13T14:37:36;98430.78;;;0.84;80.50
67517;BME280;54359;59.124;37.910;2023-02-13T14:42:52;98422.22;;;0.79;80.57
67517;BME280;54359;59.124;37.910;2023-02-13T14:45:23;98413.66;;;0.72;80.65
67517;BME280;54359;59.124;37.910;2023-02-13T14:47:55;98413.69;;;0.74;80.83
67517;BME280;54359;59.124;37.910;2023-02-13T14:50:31;98401.00;;;0.72;80.47
67517;BME280;54359;59.124;37.910;2023-02-13T14:53:07;98395.06;;;0.70;80.88
67517;BME280;54359;59.124;37.910;2023-02-13T14:55:39;98435.56;;;0.73;80.89
67517;BME280;54359;59.124;37.910;2023-02-13T14:58:28;98397.63;;;0.72;80.64
67517;BME280;54359;59.124;37.910;2023-02-13T15:01:27;98411.16;;;0.74;81.04
67517;BME280;54359;59.124;37.910;2023-02-13T15:04:06;98403.56;;;0.74;80.80
67517;BME280;54359;59.124;37.910;2023-02-13T15:06:38;98407.00;;;0.76;81.24
67517;BME280;54359;59.124;37.910;2023-02-13T15:09:25;98395.09;;;0.72;81.10
67517;BME280;54359;59.124;37.910;2023-02-13T15:11:52;98387.44;;;0.69;80.93
67517;BME280;54359;59.124;37.910;2023-02-13T15:14:35;98379.94;;;0.72;80.85
67517;BME280;54359;59.124;37.910;2023-02-13T15:19:34;98363.69;;;0.62;80.92
67517;BME280;54359;59.124;37.910;2023-02-13T15:22:03;98373.09;;;0.68;81.30
67517;BME280;54359;59.124;37.910;2023-02-13T15:24:44;98360.44;;;0.68;81.35
67517;BME280;54359;59.124;37.910;2023-02-13T15:27:28;98384.09;;;0.70;81.42
67517;BME280;54359;59.124;37.910;2023-02-13T15:30:00;98352.84;;;0.68;80.83
67517;BME280;54359;59.124;37.910;2023-02-13T15:32:35;98352.84;;;0.68;81.28
67517;BME280;54359;59.124;37.910;2023-02-13T15:35:16;98368.03;;;0.68;80.95
67517;BME280;54359;59.124;37.910;2023-02-13T15:37:46;98350.34;;;0.69;81.10
67517;BME280;54359;59.124;37.910;2023-02-13T15:40:35;98347.81;;;0.69;81.08
67517;BME280;54359;59.124;37.910;2023-02-13T15:43:21;98330.84;;;0.65;81.17
67517;BME280;54359;59.124;37.910;2023-02-13T15:45:48;98348.69;;;0.71;81.07
67517;BME280;54359;59.124;37.910;2023-02-13T15:48:16;98349.53;;;0.70;81.42
67517;BME280;54359;59.124;37.910;2023-02-13T15:50:42;98341.91;;;0.69;81.31
67517;BME280;54359;59.124;37.910;2023-02-13T15:53:15;98364.00;;;0.77;80.87
67517;BME280;54359;59.124;37.910;2023-02-13T15:55:55;98349.78;;;0.81;81.39